Time;durP1;ratioP1;P1;durP2;ratioP2;P2;SDS_P1;SDS_P2;PMS_P1;PMS_P2;Temp;Humidity;BMP_temperature;BMP_pressure;BME280_temperature;BME280_humidity;BME280_pressure;Samples;Min_cycle;Max_cycle;Signal;HPM_P1;HPM_P2
2023/06/25 00:00:11;;;;;;;4.57;4.18;;;;;;;18.61;100.00;102166.81;4971205;28;20047;-78
2023/06/25 00:02:47;;;;;;;6.18;4.65;;;;;;;18.60;100.00;102158.81;4973047;28;20056;-78
2023/06/25 00:05:15;;;;;;;6.75;4.70;;;;;;;18.59;100.00;102165.06;4970342;29;20201;-78
2023/06/25 00:07:42;;;;;;;6.57;4.53;;;;;;;18.58;100.00;102155.28;4970990;29;20051;-80
2023/06/25 00:10:10;;;;;;;7.25;4.80;;;;;;;18.55;100.00;102161.56;4935339;28;20059;-76
2023/06/25 00:12:38;;;;;;;5.80;4.63;;;;;;;18.54;100.00;102145.53;4939527;29;20047;-78
2023/06/25 00:15:09;;;;;;;5.45;4.45;;;;;;;18.51;100.00;102149.13;4983723;28;20315;-78
2023/06/25 00:17:37;;;;;;;;;;;;;;;18.49;100.00;102146.47;4969215;29;20055;-78
2023/06/25 00:20:06;;;;;;;6.60;4.53;;;;;;;18.47;100.00;102150.06;4968685;29;19959;-79
2023/06/25 00:22:33;;;;;;;5.45;4.50;;;;;;;18.47;100.00;102150.06;4981319;28;20066;-78
2023/06/25 00:25:01;;;;;;;7.55;4.00;;;;;;;18.44;100.00;102142.94;4946379;28;20038;-79
2023/06/25 00:27:28;;;;;;;5.03;4.07;;;;;;;18.42;100.00;102152.75;4938570;29;20063;-78
2023/06/25 00:30:00;;;;;;;4.53;4.13;;;;;;;18.42;100.00;102151.88;4989875;28;20058;-79
2023/06/25 00:32:28;;;;;;;6.68;4.68;;;;;;;18.40;100.00;102151.88;4985264;28;20061;-78
2023/06/25 00:35:01;;;;;;;4.88;4.28;;;;;;;18.38;100.00;102139.47;4943948;29;20043;-79
2023/06/25 00:37:29;;;;;;;4.53;4.10;;;;;;;18.37;100.00;102148.34;4969007;28;20062;-78
2023/06/25 00:39:58;;;;;;;5.68;3.85;;;;;;;18.35;100.00;102137.69;4940680;28;20047;-79
2023/06/25 00:42:26;;;;;;;4.45;4.05;;;;;;;18.33;100.00;102142.16;4966303;28;20055;-78
2023/06/25 00:44:54;;;;;;;5.05;4.15;;;;;;;18.30;100.00;102140.41;4982920;28;20053;-79
2023/06/25 00:47:22;;;;;;;5.85;4.45;;;;;;;18.27;100.00;102137.75;4969986;28;20062;-78
2023/06/25 00:49:50;;;;;;;9.35;4.25;;;;;;;18.26;100.00;102132.44;4955016;29;20044;-78
2023/06/25 00:52:19;;;;;;;5.50;4.35;;;;;;;18.25;100.00;102139.56;4968841;29;20054;-79
2023/06/25 00:54:46;;;;;;;5.32;4.40;;;;;;;18.22;100.00;102136.94;4970313;29;20059;-78
2023/06/25 00:57:15;;;;;;;5.78;4.20;;;;;;;18.20;100.00;102133.38;4968964;28;20043;-78
2023/06/25 00:59:44;;;;;;;4.72;4.20;;;;;;;18.17;100.00;102128.06;4981219;28;20075;-78
2023/06/25 01:02:43;;;;;;;4.93;4.20;;;;;;;18.15;100.00;102132.53;4952762;29;20426;-78
2023/06/25 01:05:39;;;;;;;5.05;4.00;;;;;;;18.12;100.00;102129.88;4963504;29;20479;-79
2023/06/25 01:08:09;;;;;;;6.82;4.88;;;;;;;18.10;100.00;102134.34;4968256;29;20053;-78
2023/06/25 01:10:39;;;;;;;4.78;4.38;;;;;;;18.08;100.00;102134.34;4954037;29;20048;-79
2023/06/25 01:13:06;;;;;;;5.93;4.63;;;;;;;18.07;100.00;102129.03;4966990;28;20062;-79
2023/06/25 01:15:35;;;;;;;6.68;4.18;;;;;;;18.05;100.00;102130.81;4954298;29;20063;-79
2023/06/25 01:18:04;;;;;;;5.57;4.05;;;;;;;18.03;100.00;102130.81;4948031;28;20055;-78
2023/06/25 01:20:38;;;;;;;5.80;4.15;;;;;;;18.01;100.00;102127.28;4953955;29;20053;-78
2023/06/25 01:23:06;;;;;;;5.50;4.43;;;;;;;18.02;100.00;102136.19;4967503;28;20074;-78
2023/06/25 01:25:38;;;;;;;6.20;4.22;;;;;;;18.01;100.00;102131.75;4971125;28;20455;-76
2023/06/25 01:28:06;;;;;;;3.75;3.45;;;;;;;17.99;100.00;102125.53;4950285;28;20059;-79
2023/06/25 01:30:33;;;;;;;4.57;4.18;;;;;;;17.99;100.00;102128.22;4973243;28;20065;-78
2023/06/25 01:33:07;;;;;;;9.23;4.10;;;;;;;17.98;100.00;102130.00;5001419;28;20027;-79
2023/06/25 01:35:36;;;;;;;7.45;4.85;;;;;;;17.98;100.00;102121.13;4987127;28;20467;-78
2023/06/25 01:38:05;;;;;;;5.82;4.60;;;;;;;17.96;100.00;102115.78;4937314;29;20059;-78
2023/06/25 01:40:33;;;;;;;8.30;4.70;;;;;;;17.96;100.00;102112.22;4988360;28;20081;-79
2023/06/25 01:43:01;;;;;;;6.47;4.43;;;;;;;17.96;100.00;102120.22;4969765;28;20058;-79
2023/06/25 01:45:28;;;;;;;5.13;4.45;;;;;;;17.94;100.00;102109.59;4973752;29;20062;-78
2023/06/25 01:47:57;;;;;;;7.43;6.38;;;;;;;17.94;100.00;102104.25;4953502;28;20061;-79
2023/06/25 01:50:25;;;;;;;5.20;4.75;;;;;;;17.95;100.00;102111.34;4957719;29;20065;-78
2023/06/25 01:52:53;;;;;;;8.43;5.93;;;;;;;17.93;100.00;102100.69;4956031;29;20047;-78
2023/06/25 01:55:20;;;;;;;7.45;5.78;;;;;;;17.92;100.00;102095.38;4971151;29;20051;-79
2023/06/25 01:57:50;;;;;;;8.18;6.65;;;;;;;17.92;100.00;102096.25;4969837;28;20048;-78
2023/06/25 02:00:18;;;;;;;11.93;6.97;;;;;;;17.91;100.00;102094.47;4962391;28;20051;-79
2023/06/25 02:03:00;;;;;;;10.02;6.18;;;;;;;17.90;100.00;102086.47;4984061;28;20043;-79
2023/06/25 02:05:28;;;;;;;7.93;6.57;;;;;;;17.90;100.00;102082.06;4956139;29;20055;-78
2023/06/25 02:07:56;;;;;;;7.38;6.45;;;;;;;17.87;100.00;102076.72;4955834;29;20067;-79
2023/06/25 02:10:23;;;;;;;10.05;8.75;;;;;;;17.88;100.00;102074.94;4972428;29;20051;-79
2023/06/25 02:12:50;;;;;;;11.88;8.65;;;;;;;17.86;100.00;102074.97;4978960;28;20051;-79
2023/06/25 02:15:19;;;;;;;9.48;7.95;;;;;;;17.85;100.00;102077.66;4968582;28;20051;-79
2023/06/25 02:17:46;;;;;;;11.95;7.65;;;;;;;17.83;100.00;102074.09;4973989;29;20051;-78
2023/06/25 02:20:16;;;;;;;11.43;8.73;;;;;;;17.82;100.00;102069.63;4966837;28;20066;-79
2023/06/25 02:22:44;;;;;;;11.52;9.20;;;;;;;17.80;100.00;102064.31;4972318;29;20067;-79
2023/06/25 02:25:11;;;;;;;12.38;9.57;;;;;;;17.81;100.00;102067.88;4974535;28;20051;-78
2023/06/25 02:27:39;;;;;;;11.25;8.07;;;;;;;17.77;100.00;102056.34;4974261;28;20052;-79
2023/06/25 02:30:07;;;;;;;10.02;8.93;;;;;;;17.77;100.00;102058.09;4939000;29;20035;-78
2023/06/25 02:32:35;;;;;;;13.82;9.00;;;;;;;17.76;100.00;102056.34;4971582;28;20061;-78
2023/06/25 02:35:05;;;;;;;11.43;9.43;;;;;;;17.74;100.00;102054.56;4937492;29;20050;-77
2023/06/25 02:37:33;;;;;;;11.85;9.65;;;;;;;17.73;100.00;102057.25;5002461;28;20047;-78
2023/06/25 02:40:00;;;;;;;11.70;9.20;;;;;;;17.75;100.00;102052.81;4971534;29;20055;-78
2023/06/25 02:42:27;;;;;;;11.90;9.05;;;;;;;17.73;100.00;102054.56;4987528;28;20146;-78
2023/06/25 02:44:56;;;;;;;14.85;9.65;;;;;;;17.73;100.00;102057.25;4937274;29;20057;-79
2023/06/25 02:47:24;;;;;;;9.80;8.65;;;;;;;17.71;100.00;102051.03;4955640;29;20047;-78
2023/06/25 02:49:52;;;;;;;11.68;9.18;;;;;;;17.70;100.00;102050.16;4951837;29;20039;-80
2023/06/25 02:52:19;;;;;;;14.07;9.23;;;;;;;17.70;100.00;102041.28;4939966;29;20564;-79
2023/06/25 02:54:47;;;;;;;10.70;8.35;;;;;;;17.67;100.00;102039.50;4972542;29;20047;-77
2023/06/25 02:57:15;;;;;;;8.52;7.20;;;;;;;17.67;100.00;102042.19;4936953;29;20060;-78
2023/06/25 02:59:43;;;;;;;9.60;8.38;;;;;;;17.67;100.00;102038.63;4963252;28;20067;-78
2023/06/25 03:02:12;;;;;;;8.80;7.60;;;;;;;17.66;100.00;102042.22;4943333;28;20054;-79
2023/06/25 03:04:40;;;;;;;11.98;8.55;;;;;;;17.66;100.00;102039.56;4957122;28;20063;-78
2023/06/25 03:07:08;;;;;;;12.75;9.90;;;;;;;17.66;100.00;102040.44;4975012;28;20042;-77
2023/06/25 03:09:35;;;;;;;10.40;8.77;;;;;;;17.68;100.00;102037.75;4943431;28;20061;-78
2023/06/25 03:12:03;;;;;;;11.45;9.05;;;;;;;17.69;100.00;102036.84;4958296;29;20059;-78
2023/06/25 03:14:32;;;;;;;12.70;9.70;;;;;;;17.71;100.00;102045.72;4968342;28;20043;-78
2023/06/25 03:17:04;;;;;;;13.00;9.23;;;;;;;17.71;100.00;102040.38;4944754;28;20036;-78
2023/06/25 03:19:32;;;;;;;10.80;8.82;;;;;;;17.73;100.00;102038.59;4941317;29;20047;-78
2023/06/25 03:22:00;;;;;;;10.98;9.07;;;;;;;17.74;100.00;102043.03;4952778;29;20051;-78
2023/06/25 03:24:31;;;;;;;;;;;;;;;17.74;100.00;102043.03;4971996;29;20055;-78
2023/06/25 03:27:01;;;;;;;11.50;9.03;;;;;;;17.76;100.00;102046.56;4985686;28;19933;-78
2023/06/25 03:29:34;;;;;;;13.93;8.98;;;;;;;17.78;100.00;102034.09;4964574;29;20058;-78
2023/06/25 03:32:02;;;;;;;12.23;8.77;;;;;;;17.82;100.00;102034.97;4979763;28;20048;-79
2023/06/25 03:34:31;;;;;;;12.13;8.88;;;;;;;17.84;100.00;102023.41;4928957;29;20044;-79
2023/06/25 03:36:58;;;;;;;12.98;9.80;;;;;;;17.85;100.00;102035.88;4958149;28;20051;-79
2023/06/25 03:39:26;;;;;;;13.52;11.20;;;;;;;17.88;100.00;102034.94;4957550;29;20509;-78
2023/06/25 03:41:54;;;;;;;15.70;11.35;;;;;;;17.89;100.00;102032.28;4956847;29;20511;-78
2023/06/25 03:44:22;;;;;;;13.55;11.57;;;;;;;17.91;100.00;102027.81;4959390;29;20052;-78
2023/06/25 03:46:50;;;;;;;13.98;10.45;;;;;;;17.94;100.00;102026.91;4917253;29;20118;-79
2023/06/25 03:49:18;;;;;;;17.20;12.02;;;;;;;17.96;100.00;102016.22;4955459;28;20695;-80
2023/06/25 03:51:46;;;;;;;13.23;11.48;;;;;;;17.99;100.00;102016.19;4946734;28;20055;-80
2023/06/25 03:54:14;;;;;;;12.48;9.95;;;;;;;18.01;100.00;102017.06;4979017;28;20051;-78
2023/06/25 03:56:41;;;;;;;14.30;10.05;;;;;;;18.04;100.00;102014.38;4971949;28;20051;-78
2023/06/25 03:59:12;;;;;;;12.35;9.68;;;;;;;18.07;100.00;102014.34;4977609;28;20062;-78
2023/06/25 04:01:40;;;;;;;12.73;10.57;;;;;;;18.09;100.00;102012.53;4914217;28;20074;-78
2023/06/25 04:04:07;;;;;;;13.75;10.13;;;;;;;18.13;100.00;102014.31;4944590;29;20054;-78
2023/06/25 04:06:35;;;;;;;12.30;9.32;;;;;;;18.25;100.00;102016.81;4956399;28;20051;-79
2023/06/25 04:09:08;;;;;;;13.95;10.30;;;;;;;18.45;100.00;102019.31;4941371;29;20054;-79
2023/06/25 04:11:35;;;;;;;12.70;8.43;;;;;;;18.84;100.00;102011.72;4972466;28;20059;-79
2023/06/25 04:14:11;;;;;;;12.55;9.60;;;;;;;19.40;100.00;102011.88;4944451;29;20059;-80
2023/06/25 04:16:39;;;;;;;10.45;9.07;;;;;;;19.97;100.00;102012.78;4961018;29;20054;-79
2023/06/25 04:19:09;;;;;;;9.48;8.32;;;;;;;20.51;100.00;102009.97;4901842;29;20063;-79
2023/06/25 04:21:37;;;;;;;10.30;9.18;;;;;;;21.05;100.00;102010.69;4935476;29;20062;-79
2023/06/25 04:24:05;;;;;;;12.50;8.80;;;;;;;21.55;100.00;102005.97;4954215;28;20058;-78
2023/06/25 04:26:33;;;;;;;9.07;7.53;;;;;;;22.03;100.00;102002.09;4960221;29;20077;-79
2023/06/25 04:29:02;;;;;;;10.80;8.93;;;;;;;22.49;100.00;102006.22;4976945;28;20062;-78
2023/06/25 04:31:31;;;;;;;9.57;7.80;;;;;;;22.90;100.00;102006.84;4945192;29;20058;-78
2023/06/25 04:33:59;;;;;;;10.75;8.10;;;;;;;23.29;100.00;102002.06;4915108;29;20055;-79
2023/06/25 04:36:26;;;;;;;8.93;7.15;;;;;;;23.60;100.00;101997.50;4937171;28;20054;-78
2023/06/25 04:38:57;;;;;;;9.50;7.28;;;;;;;23.88;100.00;102009.13;4959079;28;20047;-79
2023/06/25 04:41:30;;;;;;;8.05;6.90;;;;;;;24.18;100.00;102000.91;4975356;28;20537;-78
2023/06/25 04:43:59;;;;;;;8.80;7.03;;;;;;;24.52;100.00;102007.81;4943103;29;20077;-77
2023/06/25 04:46:27;;;;;;;10.95;6.97;;;;;;;24.80;100.00;101994.16;4965595;29;20043;-78
2023/06/25 04:48:55;;;;;;;8.85;7.45;;;;;;;25.13;100.00;101996.47;4935660;28;20114;-78
2023/06/25 04:51:23;;;;;;;8.73;6.40;;;;;;;25.43;100.00;101996.22;4976201;28;20116;-78
2023/06/25 04:53:51;;;;;;;7.65;5.88;;;;;;;25.64;100.00;102010.63;4965157;28;20045;-78
2023/06/25 04:56:19;;;;;;;9.15;6.40;;;;;;;25.79;100.00;102007.28;4960938;28;20054;-78
2023/06/25 04:58:48;;;;;;;7.93;5.63;;;;;;;25.99;100.00;102008.28;4950119;29;20044;-78
2023/06/25 05:01:17;;;;;;;6.50;5.37;;;;;;;26.26;100.00;102007.06;4950643;29;20057;-78
2023/06/25 05:03:45;;;;;;;6.00;5.45;;;;;;;26.49;100.00;102013.28;4965022;28;20058;-79
2023/06/25 05:06:13;;;;;;;6.22;4.93;;;;;;;26.68;100.00;102004.34;4929983;28;22472;-79
2023/06/25 05:08:40;;;;;;;6.10;5.05;;;;;;;26.81;100.00;102010.94;4928867;29;20055;-80
2023/06/25 05:11:08;;;;;;;5.60;5.00;;;;;;;26.86;100.00;102005.31;4965242;28;20050;-79
2023/06/25 05:13:35;;;;;;;6.15;5.00;;;;;;;26.91;100.00;102005.97;4923262;29;20043;-80
2023/06/25 05:16:04;;;;;;;6.18;5.20;;;;;;;27.03;100.00;102010.78;4980442;28;20047;-79
2023/06/25 05:18:32;;;;;;;6.70;5.20;;;;;;;27.15;99.70;102004.78;4943149;29;20043;-80
2023/06/25 05:20:59;;;;;;;6.15;4.82;;;;;;;27.33;97.50;101999.47;4927519;28;20055;-80
2023/06/25 05:23:26;;;;;;;6.32;4.85;;;;;;;27.41;94.02;101998.16;4952866;28;20058;-80
2023/06/25 05:25:54;;;;;;;5.70;4.10;;;;;;;27.54;92.03;102003.84;4964788;28;20065;-80
2023/06/25 05:28:21;;;;;;;5.03;4.10;;;;;;;27.74;91.50;101993.81;4950576;28;20058;-80
2023/06/25 05:30:49;;;;;;;4.60;4.10;;;;;;;28.04;90.47;101993.22;4962599;28;20059;-80
2023/06/25 05:33:16;;;;;;;5.60;3.90;;;;;;;28.32;88.14;101996.22;4951703;29;20051;-80
2023/06/25 05:35:45;;;;;;;4.40;4.00;;;;;;;28.59;86.83;101993.00;4916245;28;20055;-81
2023/06/25 05:38:12;;;;;;;3.75;3.45;;;;;;;28.81;84.64;101989.97;4934688;28;20058;-81
2023/06/25 05:40:40;;;;;;;4.20;3.80;;;;;;;28.99;82.96;101992.63;4933647;28;20070;-81
2023/06/25 05:43:08;;;;;;;5.15;3.90;;;;;;;29.20;80.19;101979.69;4946592;29;20056;-81
2023/06/25 05:45:35;;;;;;;4.88;4.43;;;;;;;29.29;78.06;101984.59;4967007;28;20419;-81
2023/06/25 05:48:03;;;;;;;4.88;3.65;;;;;;;29.39;75.88;101979.50;4969493;28;20059;-80
2023/06/25 05:50:31;;;;;;;4.10;3.70;;;;;;;29.48;75.40;101968.97;4970148;28;20054;-81
2023/06/25 05:52:59;;;;;;;3.72;3.42;;;;;;;29.61;71.54;101970.97;4931495;28;20062;-81
2023/06/25 05:55:27;;;;;;;4.57;3.85;;;;;;;29.84;70.16;101970.47;4932141;29;20058;-81
2023/06/25 05:57:54;;;;;;;3.40;3.10;;;;;;;30.09;70.12;101972.56;4918594;29;20068;-80
2023/06/25 06:00:23;;;;;;;4.82;3.17;;;;;;;30.23;66.77;101974.44;4981718;28;20059;-81
2023/06/25 06:02:50;;;;;;;3.72;3.42;;;;;;;30.24;64.36;101973.44;4930316;29;20062;-79
2023/06/25 06:05:18;;;;;;;8.55;3.53;;;;;;;30.32;64.55;101978.44;4936840;29;20190;-80
2023/06/25 06:07:45;;;;;;;5.38;3.72;;;;;;;30.20;63.69;101969.19;4889928;28;20066;-79
2023/06/25 06:10:15;;;;;;;4.22;3.92;;;;;;;30.12;64.91;101971.50;4933013;28;20066;-80
2023/06/25 06:12:42;;;;;;;3.75;3.33;;;;;;;29.79;61.35;101969.88;4925055;28;20092;-80
2023/06/25 06:15:10;;;;;;;3.97;3.58;;;;;;;29.46;62.60;101976.31;4952001;29;20387;-79
2023/06/25 06:17:37;;;;;;;3.90;3.60;;;;;;;29.25;64.57;101966.72;4953105;29;20055;-81
2023/06/25 06:20:05;;;;;;;6.22;3.90;;;;;;;29.14;64.05;101962.78;4966294;28;20078;-80
2023/06/25 06:22:34;;;;;;;5.82;3.80;;;;;;;28.71;63.79;101969.75;4934212;28;20054;-81
2023/06/25 06:25:01;;;;;;;3.97;3.67;;;;;;;28.48;66.26;101966.44;4946574;28;20051;-80
2023/06/25 06:27:29;;;;;;;4.03;3.65;;;;;;;28.47;68.68;101958.38;4948929;28;20059;-80
2023/06/25 06:29:57;;;;;;;4.68;3.92;;;;;;;28.51;66.89;101960.84;4962260;28;20078;-80
2023/06/25 06:32:26;;;;;;;4.03;3.70;;;;;;;28.45;66.33;101963.00;4967928;28;20057;-80
2023/06/25 06:34:54;;;;;;;3.67;3.38;;;;;;;28.39;67.51;101961.50;4938275;29;20139;-79
2023/06/25 06:37:21;;;;;;;6.28;4.95;;;;;;;28.34;67.83;101961.78;4919712;28;20082;-79
2023/06/25 06:39:48;;;;;;;4.75;4.30;;;;;;;28.06;68.67;101951.53;4935573;28;20437;-80
2023/06/25 06:42:17;;;;;;;5.28;3.83;;;;;;;27.80;70.72;101942.91;4949467;28;20065;-79
2023/06/25 06:44:44;;;;;;;7.22;4.03;;;;;;;27.59;70.74;101950.31;4968583;28;20051;-79
2023/06/25 06:47:12;;;;;;;4.70;4.20;;;;;;;27.41;71.12;101944.00;4949842;28;20051;-79
2023/06/25 06:49:39;;;;;;;5.35;4.78;;;;;;;27.28;72.50;101944.69;4935101;29;20051;-79
2023/06/25 06:52:07;;;;;;;4.93;4.18;;;;;;;27.21;73.76;101941.41;4897880;28;20691;-79
2023/06/25 06:54:34;;;;;;;4.55;4.15;;;;;;;27.16;74.90;101935.31;4945887;28;20047;-79
2023/06/25 06:57:02;;;;;;;4.90;4.50;;;;;;;27.10;75.36;101933.81;4946759;28;20495;-79
2023/06/25 06:59:30;;;;;;;9.15;6.72;;;;;;;27.02;74.76;101936.00;4936515;29;20059;-80
2023/06/25 07:01:58;;;;;;;8.50;6.30;;;;;;;26.92;76.46;101934.69;4964443;28;20526;-80
2023/06/25 07:04:25;;;;;;;9.23;7.03;;;;;;;26.87;77.36;101928.66;4967792;28;20055;-80
2023/06/25 07:06:53;;;;;;;9.25;7.22;;;;;;;26.77;78.00;101937.19;4918985;28;20058;-79
2023/06/25 07:09:24;;;;;;;7.57;6.80;;;;;;;26.69;79.80;101939.38;4926148;28;23047;-81
2023/06/25 07:11:53;;;;;;;8.85;7.05;;;;;;;26.61;79.93;101933.47;4941958;29;20058;-80
2023/06/25 07:14:21;;;;;;;9.27;7.67;;;;;;;26.42;82.23;101928.88;4982735;28;20039;-80
2023/06/25 07:16:49;;;;;;;11.93;9.00;;;;;;;26.39;83.73;101936.25;4946579;28;20313;-80
2023/06/25 07:19:17;;;;;;;9.38;8.48;;;;;;;26.34;82.94;101931.06;4983909;28;20058;-80
2023/06/25 07:21:45;;;;;;;12.05;8.80;;;;;;;26.24;85.23;101935.16;4940256;28;20070;-79
2023/06/25 07:24:12;;;;;;;13.65;9.60;;;;;;;26.18;86.01;101936.31;4895340;28;20046;-79
2023/06/25 07:26:40;;;;;;;11.20;8.93;;;;;;;26.17;86.66;101937.25;4935312;29;20058;-80
2023/06/25 07:29:07;;;;;;;14.18;10.15;;;;;;;26.18;86.42;101932.72;4956341;28;20066;-79
2023/06/25 07:31:35;;;;;;;12.23;9.10;;;;;;;26.20;87.83;101925.41;4941287;29;20063;-81
2023/06/25 07:34:03;;;;;;;10.02;8.55;;;;;;;26.15;88.23;101933.72;4941489;29;20048;-80
2023/06/25 07:36:30;;;;;;;10.05;9.07;;;;;;;26.18;89.15;101928.19;4935405;28;20461;-81
2023/06/25 07:39:03;;;;;;;9.73;8.40;;;;;;;26.25;89.22;101920.69;4929723;28;23160;-80
2023/06/25 07:41:31;;;;;;;8.75;7.85;;;;;;;26.26;89.28;101925.16;4941060;28;20051;-81
2023/06/25 07:43:58;;;;;;;11.32;9.15;;;;;;;26.19;89.17;101924.53;4937320;28;21338;-82
2023/06/25 07:46:25;;;;;;;11.88;8.65;;;;;;;26.18;90.13;101917.41;4915769;29;20054;-80
2023/06/25 07:48:55;;;;;;;10.02;8.88;;;;;;;26.16;90.41;101915.69;4939100;28;20783;-83
2023/06/25 07:51:23;;;;;;;8.68;7.70;;;;;;;26.18;92.39;101924.59;4933903;29;20050;-83
2023/06/25 07:53:50;;;;;;;11.40;10.18;;;;;;;26.13;92.13;101922.13;4958936;28;20474;-85
2023/06/25 07:56:20;;;;;;;11.07;9.52;;;;;;;26.19;93.28;101911.03;4909862;28;21363;-81
2023/06/25 07:58:48;;;;;;;9.65;8.65;;;;;;;26.29;94.29;101916.00;4942707;29;20047;-85
2023/06/25 08:01:15;;;;;;;10.68;8.82;;;;;;;26.33;94.75;101912.22;4928906;28;20062;-84
2023/06/25 08:03:48;;;;;;;11.23;9.57;;;;;;;26.31;92.54;101908.72;4964283;28;20043;-84
2023/06/25 08:06:19;;;;;;;10.88;8.57;;;;;;;26.27;94.19;101902.56;4944354;29;20047;-86
2023/06/25 08:08:47;;;;;;;11.18;9.10;;;;;;;26.32;94.22;101900.53;4955559;29;20066;-83
2023/06/25 08:11:14;;;;;;;9.55;8.48;;;;;;;26.38;93.73;101907.50;4910759;28;20095;-84
2023/06/25 08:13:42;;;;;;;11.43;9.27;;;;;;;26.48;91.34;101894.41;4923728;29;20059;-84
2023/06/25 08:16:10;;;;;;;9.70;7.65;;;;;;;26.61;91.61;101892.91;4954476;28;20047;-85
2023/06/25 08:18:37;;;;;;;11.95;8.07;;;;;;;26.74;92.33;101896.78;4942023;29;20055;-85
2023/06/25 08:21:05;;;;;;;11.13;7.70;;;;;;;26.79;91.08;101897.44;4940449;29;20043;-84
2023/06/25 08:23:33;;;;;;;11.95;8.77;;;;;;;26.73;89.88;101889.63;4936273;28;20050;-86
2023/06/25 08:26:12;;;;;;;10.70;8.02;;;;;;;26.72;90.88;101887.88;4953545;28;20051;-84
2023/06/25 08:28:40;;;;;;;8.65;7.78;;;;;;;26.77;90.27;101891.25;4942078;28;20071;-85
2023/06/25 08:31:10;;;;;;;9.57;8.38;;;;;;;26.84;88.92;101881.88;4942978;28;20055;-85
2023/06/25 08:33:38;;;;;;;8.55;7.43;;;;;;;26.86;87.94;101889.03;4936043;29;20062;-85
2023/06/25 08:36:06;;;;;;;11.63;7.97;;;;;;;26.88;89.15;101882.63;4957938;29;20043;-84
2023/06/25 08:38:35;;;;;;;8.07;7.25;;;;;;;26.92;89.22;101888.72;4937639;29;20058;-84
2023/06/25 08:41:03;;;;;;;8.57;7.77;;;;;;;26.92;88.11;101886.00;4925059;29;20059;-85
2023/06/25 08:43:31;;;;;;;8.45;6.80;;;;;;;26.96;89.98;101884.94;4939410;29;20527;-85
2023/06/25 08:45:59;;;;;;;7.35;6.28;;;;;;;26.98;88.45;101877.63;4948806;28;20047;-88
2023/06/25 08:48:35;;;;;;;8.15;6.10;;;;;;;27.01;89.37;101880.16;4935462;29;20051;-86
2023/06/25 08:51:08;;;;;;;7.85;7.15;;;;;;;27.11;89.40;101872.44;4951517;28;20689;-86
2023/06/25 08:53:36;;;;;;;8.63;6.47;;;;;;;27.20;89.65;101872.88;4952535;28;20055;-86
2023/06/25 08:56:06;;;;;;;7.90;7.07;;;;;;;27.26;88.30;101865.41;4939622;28;20047;-86
2023/06/25 08:58:35;;;;;;;7.38;6.63;;;;;;;27.34;87.28;101869.50;4917646;28;20046;-86
2023/06/25 09:01:03;;;;;;;9.80;8.30;;;;;;;27.41;86.48;101867.34;4922340;29;20043;-86
2023/06/25 09:03:31;;;;;;;8.35;6.68;;;;;;;27.41;86.30;101867.34;4944168;28;20379;-86
2023/06/25 09:05:59;;;;;;;6.05;5.32;;;;;;;27.47;85.83;101869.75;4968527;28;20404;-86
2023/06/25 09:08:28;;;;;;;7.82;5.78;;;;;;;27.54;83.08;101864.88;4951851;28;20054;-86
2023/06/25 09:10:59;;;;;;;6.22;5.68;;;;;;;27.60;83.12;101859.16;4955616;28;20518;-87
2023/06/25 09:13:27;;;;;;;9.43;6.68;;;;;;;27.61;82.63;101858.19;4901314;29;20047;-85
2023/06/25 09:16:03;;;;;;;7.75;6.75;;;;;;;27.65;82.51;101862.47;4934645;28;20066;-84
2023/06/25 09:18:32;;;;;;;6.93;5.40;;;;;;;27.73;80.91;101849.44;4948522;28;20055;-85
2023/06/25 09:21:07;;;;;;;7.45;5.80;;;;;;;27.78;81.41;101854.59;4955123;28;20047;-84
2023/06/25 09:23:38;;;;;;;6.97;5.90;;;;;;;27.85;79.55;101856.00;4961532;28;20419;-86
2023/06/25 09:26:09;;;;;;;6.28;5.65;;;;;;;27.90;78.82;101859.38;4984536;28;20051;-88
2023/06/25 09:28:51;;;;;;;7.20;4.95;;;;;;;27.97;75.28;101855.38;4930219;28;20071;-87
2023/06/25 09:31:19;;;;;;;6.18;5.65;;;;;;;28.02;75.91;101848.84;4937400;28;20043;-82
2023/06/25 09:33:57;;;;;;;5.32;4.93;;;;;;;27.99;75.23;101839.91;4913106;29;20119;-86
2023/06/25 09:36:32;;;;;;;5.32;4.93;;;;;;;28.01;74.75;101842.53;4942324;28;20043;-85
2023/06/25 09:39:07;;;;;;;9.48;5.20;;;;;;;28.05;73.74;101835.97;4983744;28;20519;-84
2023/06/25 09:41:41;;;;;;;6.23;5.10;;;;;;;28.15;74.70;101839.09;4943526;28;20051;-85
2023/06/25 09:44:10;;;;;;;7.93;5.03;;;;;;;28.18;73.26;101834.34;4952887;28;20307;-85
2023/06/25 09:46:40;;;;;;;4.88;4.47;;;;;;;28.22;72.53;101837.75;4946771;28;20062;-84
2023/06/25 09:49:08;;;;;;;5.07;4.57;;;;;;;28.24;72.28;101829.56;4933058;29;20047;-85
2023/06/25 09:52:04;;;;;;;6.18;4.60;;;;;;;28.33;72.19;101834.47;4937411;28;20063;-85
2023/06/25 09:54:32;;;;;;;5.53;4.47;;;;;;;28.38;69.50;101830.53;4960206;28;20074;-85
2023/06/25 09:57:03;;;;;;;4.40;4.00;;;;;;;28.46;69.51;101831.94;4939435;29;20051;-81
2023/06/25 09:59:33;;;;;;;5.13;4.30;;;;;;;28.47;68.82;101817.41;4944094;28;20050;-85
2023/06/25 10:02:04;;;;;;;5.07;4.05;;;;;;;28.53;68.63;101819.81;4948217;28;20051;-85
2023/06/25 10:04:33;;;;;;;5.18;4.45;;;;;;;28.56;68.22;101819.63;4983724;28;20573;-85
2023/06/25 10:07:02;;;;;;;4.47;4.13;;;;;;;28.62;65.62;101816.59;4930469;29;20055;-83
2023/06/25 10:09:30;;;;;;;4.38;4.00;;;;;;;28.68;63.76;101823.50;4963172;29;20144;-85
2023/06/25 10:11:59;;;;;;;5.55;3.85;;;;;;;28.74;62.94;101818.56;4968867;28;20055;-83
2023/06/25 10:14:36;;;;;;;4.20;3.22;;;;;;;28.82;58.19;101822.69;4929662;28;20063;-84
2023/06/25 10:17:05;;;;;;;7.10;3.97;;;;;;;28.87;59.73;101820.56;4926337;28;20050;-83
2023/06/25 10:19:33;;;;;;;5.90;4.75;;;;;;;28.84;60.28;101808.06;4961453;28;20442;-84
2023/06/25 10:22:16;;;;;;;5.60;5.10;;;;;;;28.90;62.34;101798.69;4948980;28;20058;-83
2023/06/25 10:24:49;;;;;;;6.53;4.60;;;;;;;29.00;63.78;101797.19;4937597;29;20031;-81
2023/06/25 10:27:26;;;;;;;5.13;4.25;;;;;;;29.01;60.45;101789.91;4944639;28;20135;-83
2023/06/25 10:29:56;;;;;;;7.22;5.28;;;;;;;28.96;61.94;101791.06;4907122;29;20816;-83
2023/06/25 10:32:27;;;;;;;5.65;5.15;;;;;;;28.95;61.52;101791.16;4942451;28;20066;-83
2023/06/25 10:34:55;;;;;;;;;;;;;;;28.95;63.74;101788.44;4929967;28;20062;-82
2023/06/25 10:37:31;;;;;;;4.40;4.00;;;;;;;28.99;61.92;101775.56;4943380;29;19949;-84
2023/06/25 10:40:10;;;;;;;6.03;4.90;;;;;;;29.08;61.66;101773.16;4972294;28;20043;-86
2023/06/25 10:42:37;;;;;;;4.95;4.50;;;;;;;29.18;63.14;101772.66;4955214;29;20043;-82
2023/06/25 10:45:06;;;;;;;4.82;4.40;;;;;;;29.23;62.93;101776.81;4933379;28;20081;-83
2023/06/25 10:47:34;;;;;;;4.80;4.15;;;;;;;29.33;62.11;101763.56;4959473;28;20061;-83
2023/06/25 10:50:01;;;;;;;4.47;4.05;;;;;;;29.44;59.69;101761.06;4942331;29;20249;-83
2023/06/25 10:52:29;;;;;;;5.53;3.75;;;;;;;29.39;59.84;101751.44;4922067;29;20079;-83
2023/06/25 10:55:00;;;;;;;6.22;3.78;;;;;;;29.39;57.68;101755.03;4913431;28;20099;-84
2023/06/25 10:57:31;;;;;;;4.88;4.45;;;;;;;29.40;56.89;101754.06;4961478;28;20054;-81
2023/06/25 10:59:59;;;;;;;4.88;4.10;;;;;;;29.38;55.44;101757.81;4955385;28;20062;-84
2023/06/25 11:02:27;;;;;;;4.53;4.03;;;;;;;29.37;55.53;101754.25;4952926;28;20054;-83
2023/06/25 11:04:56;;;;;;;5.05;4.65;;;;;;;29.43;56.51;101747.56;4926211;28;20051;-82
2023/06/25 11:07:25;;;;;;;5.37;4.10;;;;;;;29.49;56.85;101741.75;4967446;28;20503;-82
2023/06/25 11:10:00;;;;;;;4.18;3.78;;;;;;;29.55;56.01;101736.81;4956435;28;20809;-81
2023/06/25 11:12:29;;;;;;;5.68;3.40;;;;;;;29.53;54.41;101744.19;4952160;29;20055;-82
2023/06/25 11:14:57;;;;;;;3.50;3.20;;;;;;;29.59;54.70;101737.50;4930147;28;20059;-82
2023/06/25 11:17:26;;;;;;;4.07;3.38;;;;;;;29.71;54.36;101747.56;4912280;28;20059;-81
2023/06/25 11:19:55;;;;;;;3.92;3.50;;;;;;;29.85;53.38;101729.53;4909978;28;20055;-85
2023/06/25 11:22:26;;;;;;;4.30;3.20;;;;;;;29.86;53.06;101734.03;4971828;28;20058;-80
2023/06/25 11:24:53;;;;;;;;;;;;;;;29.94;49.50;101731.66;4946036;28;20301;-85
2023/06/25 11:27:28;;;;;;;4.85;2.83;;;;;;;30.02;50.35;101728.47;4976796;28;19926;-87